sensor_id;sensor_type;location;lat;lon;timestamp;temperature;humidity
18506;DHT22;9382;53.242;10.438;2023-06-26T00:01:45;20.00;99.90
18506;DHT22;9382;53.242;10.438;2023-06-26T00:04:12;20.00;99.90
18506;DHT22;9382;53.242;10.438;2023-06-26T00:06:40;20.00;99.90
18506;DHT22;9382;53.242;10.438;2023-06-26T00:09:06;20.00;99.90
18506;DHT22;9382;53.242;10.438;2023-06-26T00:11:33;19.90;99.90
18506;DHT22;9382;53.242;10.438;2023-06-26T00:14:00;19.90;99.90
18506;DHT22;9382;53.242;10.438;2023-06-26T00:16:28;19.90;99.90
18506;DHT22;9382;53.242;10.438;2023-06-26T00:18:56;19.90;99.90
18506;DHT22;9382;53.242;10.438;2023-06-26T00:21:24;19.90;99.90
18506;DHT22;9382;53.242;10.438;2023-06-26T00:23:51;19.90;99.90
18506;DHT22;9382;53.242;10.438;2023-06-26T00:26:17;19.90;99.90
18506;DHT22;9382;53.242;10.438;2023-06-26T00:28:44;19.90;99.90
18506;DHT22;9382;53.242;10.438;2023-06-26T00:31:11;19.90;99.90
18506;DHT22;9382;53.242;10.438;2023-06-26T00:33:38;19.80;99.90
18506;DHT22;9382;53.242;10.438;2023-06-26T00:36:05;19.80;99.90
18506;DHT22;9382;53.242;10.438;2023-06-26T00:38:32;19.80;99.90
18506;DHT22;9382;53.242;10.438;2023-06-26T00:40:58;19.80;99.90
18506;DHT22;9382;53.242;10.438;2023-06-26T00:43:25;19.70;99.90
18506;DHT22;9382;53.242;10.438;2023-06-26T00:45:52;19.80;99.90
18506;DHT22;9382;53.242;10.438;2023-06-26T00:48:18;19.80;99.90
18506;DHT22;9382;53.242;10.438;2023-06-26T00:50:47;19.80;99.90
18506;DHT22;9382;53.242;10.438;2023-06-26T00:53:13;19.80;99.90
18506;DHT22;9382;53.242;10.438;2023-06-26T00:55:40;19.80;99.90
18506;DHT22;9382;53.242;10.438;2023-06-26T00:58:07;19.80;99.90
18506;DHT22;9382;53.242;10.438;2023-06-26T01:00:33;19.80;99.90
18506;DHT22;9382;53.242;10.438;2023-06-26T01:03:00;19.80;99.90
18506;DHT22;9382;53.242;10.438;2023-06-26T01:05:27;19.80;99.90
18506;DHT22;9382;53.242;10.438;2023-06-26T01:07:57;19.70;99.90
18506;DHT22;9382;53.242;10.438;2023-06-26T01:10:24;19.70;99.90
18506;DHT22;9382;53.242;10.438;2023-06-26T01:12:53;19.70;99.90
18506;DHT22;9382;53.242;10.438;2023-06-26T01:15:19;19.70;99.90
18506;DHT22;9382;53.242;10.438;2023-06-26T01:17:46;19.60;99.90
18506;DHT22;9382;53.242;10.438;2023-06-26T01:20:14;19.60;99.90
18506;DHT22;9382;53.242;10.438;2023-06-26T01:22:49;19.60;99.90
18506;DHT22;9382;53.242;10.438;2023-06-26T01:25:31;19.50;99.90
18506;DHT22;9382;53.242;10.438;2023-06-26T01:28:06;19.50;99.90
18506;DHT22;9382;53.242;10.438;2023-06-26T01:30:34;19.40;99.90
18506;DHT22;9382;53.242;10.438;2023-06-26T01:33:02;19.40;99.90
18506;DHT22;9382;53.242;10.438;2023-06-26T01:35:30;19.40;99.90
18506;DHT22;9382;53.242;10.438;2023-06-26T01:38:11;19.40;99.90
18506;DHT22;9382;53.242;10.438;2023-06-26T01:40:38;19.40;99.90
18506;DHT22;9382;53.242;10.438;2023-06-26T01:43:10;19.40;99.90
18506;DHT22;9382;53.242;10.438;2023-06-26T01:45:39;19.30;99.90
18506;DHT22;9382;53.242;10.438;2023-06-26T01:48:06;19.30;99.90
18506;DHT22;9382;53.242;10.438;2023-06-26T01:50:36;19.30;99.90
18506;DHT22;9382;53.242;10.438;2023-06-26T01:53:09;19.30;99.90
18506;DHT22;9382;53.242;10.438;2023-06-26T01:55:41;19.30;99.90
18506;DHT22;9382;53.242;10.438;2023-06-26T01:58:10;19.20;99.90
18506;DHT22;9382;53.242;10.438;2023-06-26T02:00:37;19.20;99.90
18506;DHT22;9382;53.242;10.438;2023-06-26T02:03:03;19.20;99.90
18506;DHT22;9382;53.242;10.438;2023-06-26T02:05:32;19.20;99.90
18506;DHT22;9382;53.242;10.438;2023-06-26T02:07:58;19.20;99.90
18506;DHT22;9382;53.242;10.438;2023-06-26T02:10:26;19.20;99.90
18506;DHT22;9382;53.242;10.438;2023-06-26T02:12:53;19.20;99.90
18506;DHT22;9382;53.242;10.438;2023-06-26T02:15:21;19.10;99.90
18506;DHT22;9382;53.242;10.438;2023-06-26T02:17:48;19.10;99.90
18506;DHT22;9382;53.242;10.438;2023-06-26T02:20:15;19.10;99.90
18506;DHT22;9382;53.242;10.438;2023-06-26T02:22:42;19.10;99.90
18506;DHT22;9382;53.242;10.438;2023-06-26T02:25:09;19.10;99.90
18506;DHT22;9382;53.242;10.438;2023-06-26T02:27:37;19.10;99.90
18506;DHT22;9382;53.242;10.438;2023-06-26T02:30:05;19.10;99.90
18506;DHT22;9382;53.242;10.438;2023-06-26T02:32:33;19.20;99.90
18506;DHT22;9382;53.242;10.438;2023-06-26T02:35:00;19.20;99.90
18506;DHT22;9382;53.242;10.438;2023-06-26T02:37:26;19.10;99.90
18506;DHT22;9382;53.242;10.438;2023-06-26T02:39:53;19.10;99.90
18506;DHT22;9382;53.242;10.438;2023-06-26T02:42:20;19.10;99.90
18506;DHT22;9382;53.242;10.438;2023-06-26T02:44:46;19.10;99.90
18506;DHT22;9382;53.242;10.438;2023-06-26T02:47:13;19.20;99.90
18506;DHT22;9382;53.242;10.438;2023-06-26T02:49:41;19.10;99.90
18506;DHT22;9382;53.242;10.438;2023-06-26T02:52:08;19.20;99.90
18506;DHT22;9382;53.242;10.438;2023-06-26T02:54:35;19.20;99.90
18506;DHT22;9382;53.242;10.438;2023-06-26T02:57:01;19.20;99.90
18506;DHT22;9382;53.242;10.438;2023-06-26T02:59:28;19.20;99.90
18506;DHT22;9382;53.242;10.438;2023-06-26T03:01:54;19.20;99.90
18506;DHT22;9382;53.242;10.438;2023-06-26T03:04:21;19.30;99.90
18506;DHT22;9382;53.242;10.438;2023-06-26T03:06:49;19.20;99.90
18506;DHT22;9382;53.242;10.438;2023-06-26T03:09:16;19.20;99.90
18506;DHT22;9382;53.242;10.438;2023-06-26T03:11:43;19.20;99.90
18506;DHT22;9382;53.242;10.438;2023-06-26T03:14:10;19.20;99.90
18506;DHT22;9382;53.242;10.438;2023-06-26T03:16:36;19.20;99.90
18506;DHT22;9382;53.242;10.438;2023-06-26T03:19:03;19.20;99.90
18506;DHT22;9382;53.242;10.438;2023-06-26T03:21:29;19.10;99.90
18506;DHT22;9382;53.242;10.438;2023-06-26T03:23:58;19.10;99.90
18506;DHT22;9382;53.242;10.438;2023-06-26T03:26:24;19.10;99.90
18506;DHT22;9382;53.242;10.438;2023-06-26T03:28:52;19.10;99.90
18506;DHT22;9382;53.242;10.438;2023-06-26T03:31:19;19.10;99.90
18506;DHT22;9382;53.242;10.438;2023-06-26T03:33:46;19.10;99.90
18506;DHT22;9382;53.242;10.438;2023-06-26T03:36:12;19.10;99.90
18506;DHT22;9382;53.242;10.438;2023-06-26T03:38:39;19.20;99.90
18506;DHT22;9382;53.242;10.438;2023-06-26T03:41:07;19.20;99.90
18506;DHT22;9382;53.242;10.438;2023-06-26T03:43:34;19.20;99.90
18506;DHT22;9382;53.242;10.438;2023-06-26T03:46:01;19.20;99.90
18506;DHT22;9382;53.242;10.438;2023-06-26T03:48:27;19.20;99.90
18506;DHT22;9382;53.242;10.438;2023-06-26T03:50:54;19.30;99.90
18506;DHT22;9382;53.242;10.438;2023-06-26T03:53:20;19.30;99.90
18506;DHT22;9382;53.242;10.438;2023-06-26T03:55:47;19.30;99.90
18506;DHT22;9382;53.242;10.438;2023-06-26T03:58:15;19.30;99.90
18506;DHT22;9382;53.242;10.438;2023-06-26T04:00:42;19.40;99.90
18506;DHT22;9382;53.242;10.438;2023-06-26T04:03:08;19.30;99.90
18506;DHT22;9382;53.242;10.438;2023-06-26T04:05:36;19.40;99.90
18506;DHT22;9382;53.242;10.438;2023-06-26T04:08:03;19.40;99.90
18506;DHT22;9382;53.242;10.438;2023-06-26T04:10:30;19.40;99.90
18506;DHT22;9382;53.242;10.438;2023-06-26T04:12:56;19.40;99.90
18506;DHT22;9382;53.242;10.438;2023-06-26T04:15:24;19.40;99.90
18506;DHT22;9382;53.242;10.438;2023-06-26T04:17:51;19.50;99.90
18506;DHT22;9382;53.242;10.438;2023-06-26T04:20:17;19.50;99.90
18506;DHT22;9382;53.242;10.438;2023-06-26T04:22:44;19.60;99.90
18506;DHT22;9382;53.242;10.438;2023-06-26T04:25:11;19.60;99.90
18506;DHT22;9382;53.242;10.438;2023-06-26T04:27:38;19.60;99.90
18506;DHT22;9382;53.242;10.438;2023-06-26T04:30:06;19.70;99.90
18506;DHT22;9382;53.242;10.438;2023-06-26T04:32:34;19.70;99.90
18506;DHT22;9382;53.242;10.438;2023-06-26T04:35:01;19.80;99.90
18506;DHT22;9382;53.242;10.438;2023-06-26T04:37:28;19.80;99.90
18506;DHT22;9382;53.242;10.438;2023-06-26T04:39:55;19.90;99.90
18506;DHT22;9382;53.242;10.438;2023-06-26T04:42:21;19.90;99.90
18506;DHT22;9382;53.242;10.438;2023-06-26T04:44:48;19.90;99.90
18506;DHT22;9382;53.242;10.438;2023-06-26T04:47:14;20.00;99.90
18506;DHT22;9382;53.242;10.438;2023-06-26T04:49:43;20.00;99.90
18506;DHT22;9382;53.242;10.438;2023-06-26T04:52:11;20.10;99.90
18506;DHT22;9382;53.242;10.438;2023-06-26T04:54:38;20.20;99.90
18506;DHT22;9382;53.242;10.438;2023-06-26T04:57:05;20.20;99.90
18506;DHT22;9382;53.242;10.438;2023-06-26T04:59:32;20.20;99.90
18506;DHT22;9382;53.242;10.438;2023-06-26T05:01:58;20.30;99.90
18506;DHT22;9382;53.242;10.438;2023-06-26T05:04:25;20.30;99.90
18506;DHT22;9382;53.242;10.438;2023-06-26T05:06:53;20.40;99.90
18506;DHT22;9382;53.242;10.438;2023-06-26T05:09:19;20.40;99.90
18506;DHT22;9382;53.242;10.438;2023-06-26T05:11:46;20.50;99.90
18506;DHT22;9382;53.242;10.438;2023-06-26T05:14:13;20.60;99.90
18506;DHT22;9382;53.242;10.438;2023-06-26T05:16:39;20.60;99.90
18506;DHT22;9382;53.242;10.438;2023-06-26T05:19:06;20.70;99.90
18506;DHT22;9382;53.242;10.438;2023-06-26T05:21:33;20.80;99.90
18506;DHT22;9382;53.242;10.438;2023-06-26T05:24:02;20.80;99.90
18506;DHT22;9382;53.242;10.438;2023-06-26T05:26:30;20.90;99.90
18506;DHT22;9382;53.242;10.438;2023-06-26T05:28:57;21.00;99.90
18506;DHT22;9382;53.242;10.438;2023-06-26T05:31:24;21.00;99.90
18506;DHT22;9382;53.242;10.438;2023-06-26T05:33:52;21.10;99.90
18506;DHT22;9382;53.242;10.438;2023-06-26T05:36:22;21.20;99.90
18506;DHT22;9382;53.242;10.438;2023-06-26T05:38:50;21.30;99.90
18506;DHT22;9382;53.242;10.438;2023-06-26T05:41:18;21.40;99.90
18506;DHT22;9382;53.242;10.438;2023-06-26T05:43:45;21.50;99.90
18506;DHT22;9382;53.242;10.438;2023-06-26T05:46:12;21.50;99.90
18506;DHT22;9382;53.242;10.438;2023-06-26T05:48:38;21.60;99.90
18506;DHT22;9382;53.242;10.438;2023-06-26T05:51:06;21.80;99.90
18506;DHT22;9382;53.242;10.438;2023-06-26T05:53:34;21.90;99.90
18506;DHT22;9382;53.242;10.438;2023-06-26T05:56:01;22.00;99.90
18506;DHT22;9382;53.242;10.438;2023-06-26T05:58:30;22.10;99.90
18506;DHT22;9382;53.242;10.438;2023-06-26T06:00:56;22.20;99.90
18506;DHT22;9382;53.242;10.438;2023-06-26T06:03:23;22.30;99.90
18506;DHT22;9382;53.242;10.438;2023-06-26T06:05:50;22.40;99.90
18506;DHT22;9382;53.242;10.438;2023-06-26T06:08:17;22.60;99.90
18506;DHT22;9382;53.242;10.438;2023-06-26T06:10:43;22.60;99.90
18506;DHT22;9382;53.242;10.438;2023-06-26T06:13:10;22.70;99.90
18506;DHT22;9382;53.242;10.438;2023-06-26T06:15:38;22.70;99.90
18506;DHT22;9382;53.242;10.438;2023-06-26T06:18:05;22.80;99.90
18506;DHT22;9382;53.242;10.438;2023-06-26T06:20:31;22.90;99.90
18506;DHT22;9382;53.242;10.438;2023-06-26T06:22:58;22.90;99.90
18506;DHT22;9382;53.242;10.438;2023-06-26T06:25:25;23.00;99.90
18506;DHT22;9382;53.242;10.438;2023-06-26T06:27:51;23.10;99.90
18506;DHT22;9382;53.242;10.438;2023-06-26T06:30:18;23.20;99.90
18506;DHT22;9382;53.242;10.438;2023-06-26T06:32:46;23.20;99.90
18506;DHT22;9382;53.242;10.438;2023-06-26T06:35:16;23.30;99.90
18506;DHT22;9382;53.242;10.438;2023-06-26T06:37:42;23.40;99.90
18506;DHT22;9382;53.242;10.438;2023-06-26T06:40:10;23.60;99.90
18506;DHT22;9382;53.242;10.438;2023-06-26T06:42:37;23.70;99.90
18506;DHT22;9382;53.242;10.438;2023-06-26T06:45:04;23.70;99.90
18506;DHT22;9382;53.242;10.438;2023-06-26T06:47:32;23.80;99.90
18506;DHT22;9382;53.242;10.438;2023-06-26T06:50:00;24.00;99.90
18506;DHT22;9382;53.242;10.438;2023-06-26T06:52:34;24.10;99.90
18506;DHT22;9382;53.242;10.438;2023-06-26T06:55:01;24.20;99.90
18506;DHT22;9382;53.242;10.438;2023-06-26T06:57:30;24.30;99.90
18506;DHT22;9382;53.242;10.438;2023-06-26T07:00:01;24.40;99.90
18506;DHT22;9382;53.242;10.438;2023-06-26T07:02:28;24.50;99.90
18506;DHT22;9382;53.242;10.438;2023-06-26T07:04:54;24.60;99.90
18506;DHT22;9382;53.242;10.438;2023-06-26T07:07:22;24.70;99.90
18506;DHT22;9382;53.242;10.438;2023-06-26T07:09:49;24.80;99.90
18506;DHT22;9382;53.242;10.438;2023-06-26T07:12:16;24.90;99.90
18506;DHT22;9382;53.242;10.438;2023-06-26T07:14:42;25.10;99.90
18506;DHT22;9382;53.242;10.438;2023-06-26T07:17:09;25.20;99.90
18506;DHT22;9382;53.242;10.438;2023-06-26T07:19:35;25.30;99.90
18506;DHT22;9382;53.242;10.438;2023-06-26T07:22:02;25.50;99.90
18506;DHT22;9382;53.242;10.438;2023-06-26T07:24:30;25.50;99.90
18506;DHT22;9382;53.242;10.438;2023-06-26T07:26:59;25.60;99.90
18506;DHT22;9382;53.242;10.438;2023-06-26T07:29:26;25.70;99.90
18506;DHT22;9382;53.242;10.438;2023-06-26T07:31:52;25.80;99.90
18506;DHT22;9382;53.242;10.438;2023-06-26T07:34:19;26.10;99.90
18506;DHT22;9382;53.242;10.438;2023-06-26T07:36:46;26.20;99.90
18506;DHT22;9382;53.242;10.438;2023-06-26T07:39:12;26.30;99.90
18506;DHT22;9382;53.242;10.438;2023-06-26T07:41:40;26.30;99.90
18506;DHT22;9382;53.242;10.438;2023-06-26T07:44:07;26.30;99.90
18506;DHT22;9382;53.242;10.438;2023-06-26T07:46:34;26.40;99.90
18506;DHT22;9382;53.242;10.438;2023-06-26T07:49:00;26.50;99.90
18506;DHT22;9382;53.242;10.438;2023-06-26T07:51:27;26.70;99.90
18506;DHT22;9382;53.242;10.438;2023-06-26T07:53:53;26.90;99.90
18506;DHT22;9382;53.242;10.438;2023-06-26T07:56:20;27.00;99.90
18506;DHT22;9382;53.242;10.438;2023-06-26T07:58:48;27.00;99.90
18506;DHT22;9382;53.242;10.438;2023-06-26T08:01:15;27.20;99.90
18506;DHT22;9382;53.242;10.438;2023-06-26T08:03:41;27.40;99.90
18506;DHT22;9382;53.242;10.438;2023-06-26T08:06:08;27.60;99.90
18506;DHT22;9382;53.242;10.438;2023-06-26T08:08:34;27.80;99.90
18506;DHT22;9382;53.242;10.438;2023-06-26T08:11:01;27.70;99.90
18506;DHT22;9382;53.242;10.438;2023-06-26T08:13:28;27.60;99.90
18506;DHT22;9382;53.242;10.438;2023-06-26T08:15:56;27.60;99.90
18506;DHT22;9382;53.242;10.438;2023-06-26T08:18:22;27.80;99.90
18506;DHT22;9382;53.242;10.438;2023-06-26T08:20:49;27.90;99.90
18506;DHT22;9382;53.242;10.438;2023-06-26T08:23:16;27.90;99.90
18506;DHT22;9382;53.242;10.438;2023-06-26T08:25:42;28.00;99.90
18506;DHT22;9382;53.242;10.438;2023-06-26T08:28:09;28.10;99.90
18506;DHT22;9382;53.242;10.438;2023-06-26T08:30:36;28.20;99.90
18506;DHT22;9382;53.242;10.438;2023-06-26T08:33:04;28.40;99.90
18506;DHT22;9382;53.242;10.438;2023-06-26T08:35:30;28.50;99.90
18506;DHT22;9382;53.242;10.438;2023-06-26T08:37:57;28.80;99.90
18506;DHT22;9382;53.242;10.438;2023-06-26T08:40:24;28.90;99.90
18506;DHT22;9382;53.242;10.438;2023-06-26T08:42:51;29.10;99.90
18506;DHT22;9382;53.242;10.438;2023-06-26T08:45:19;29.30;99.90
18506;DHT22;9382;53.242;10.438;2023-06-26T08:47:48;29.50;99.90
18506;DHT22;9382;53.242;10.438;2023-06-26T08:50:20;29.80;99.90
18506;DHT22;9382;53.242;10.438;2023-06-26T08:52:54;30.00;99.90
18506;DHT22;9382;53.242;10.438;2023-06-26T08:55:23;30.00;99.90
18506;DHT22;9382;53.242;10.438;2023-06-26T08:57:52;30.00;99.90
18506;DHT22;9382;53.242;10.438;2023-06-26T09:00:20;29.70;99.90
18506;DHT22;9382;53.242;10.438;2023-06-26T09:02:46;29.30;99.90
18506;DHT22;9382;53.242;10.438;2023-06-26T09:05:13;29.20;99.90
18506;DHT22;9382;53.242;10.438;2023-06-26T09:07:41;29.10;99.90
18506;DHT22;9382;53.242;10.438;2023-06-26T09:10:09;29.40;99.90
18506;DHT22;9382;53.242;10.438;2023-06-26T09:12:36;29.60;99.90
18506;DHT22;9382;53.242;10.438;2023-06-26T09:15:05;29.80;99.90
18506;DHT22;9382;53.242;10.438;2023-06-26T09:17:36;29.90;99.90
18506;DHT22;9382;53.242;10.438;2023-06-26T09:20:05;30.10;99.90
18506;DHT22;9382;53.242;10.438;2023-06-26T09:22:34;30.30;99.90
18506;DHT22;9382;53.242;10.438;2023-06-26T09:25:05;30.20;99.90
18506;DHT22;9382;53.242;10.438;2023-06-26T09:27:32;30.00;99.90
18506;DHT22;9382;53.242;10.438;2023-06-26T09:29:59;30.00;99.90
18506;DHT22;9382;53.242;10.438;2023-06-26T09:32:26;29.80;99.90
18506;DHT22;9382;53.242;10.438;2023-06-26T09:34:53;29.80;99.90
18506;DHT22;9382;53.242;10.438;2023-06-26T09:37:21;29.90;99.90
18506;DHT22;9382;53.242;10.438;2023-06-26T09:39:48;29.80;99.90
18506;DHT22;9382;53.242;10.438;2023-06-26T09:42:16;29.80;99.90
18506;DHT22;9382;53.242;10.438;2023-06-26T09:44:44;29.90;99.90
18506;DHT22;9382;53.242;10.438;2023-06-26T09:47:11;30.10;99.90
18506;DHT22;9382;53.242;10.438;2023-06-26T09:49:41;29.90;99.90
18506;DHT22;9382;53.242;10.438;2023-06-26T09:52:08;29.90;99.90
18506;DHT22;9382;53.242;10.438;2023-06-26T09:54:35;30.20;99.90
18506;DHT22;9382;53.242;10.438;2023-06-26T09:57:08;30.30;99.90
18506;DHT22;9382;53.242;10.438;2023-06-26T09:59:36;30.40;99.90
18506;DHT22;9382;53.242;10.438;2023-06-26T10:02:04;30.80;99.90
18506;DHT22;9382;53.242;10.438;2023-06-26T10:04:31;30.50;99.90
18506;DHT22;9382;53.242;10.438;2023-06-26T10:06:58;30.20;99.90
18506;DHT22;9382;53.242;10.438;2023-06-26T10:09:27;29.80;99.90
18506;DHT22;9382;53.242;10.438;2023-06-26T10:11:56;29.70;99.90
18506;DHT22;9382;53.242;10.438;2023-06-26T10:14:26;29.60;99.90
18506;DHT22;9382;53.242;10.438;2023-06-26T10:16:57;29.70;99.90
18506;DHT22;9382;53.242;10.438;2023-06-26T10:19:25;29.90;99.90
18506;DHT22;9382;53.242;10.438;2023-06-26T10:21:54;29.90;99.90
18506;DHT22;9382;53.242;10.438;2023-06-26T10:24:22;29.60;99.90
18506;DHT22;9382;53.242;10.438;2023-06-26T10:26:50;29.60;99.90
18506;DHT22;9382;53.242;10.438;2023-06-26T10:29:20;29.90;99.90
18506;DHT22;9382;53.242;10.438;2023-06-26T10:31:51;30.20;99.90
18506;DHT22;9382;53.242;10.438;2023-06-26T10:34:20;30.10;99.90
18506;DHT22;9382;53.242;10.438;2023-06-26T10:36:47;29.90;99.90
18506;DHT22;9382;53.242;10.438;2023-06-26T10:39:24;29.40;99.90
18506;DHT22;9382;53.242;10.438;2023-06-26T10:41:54;28.90;99.90
18506;DHT22;9382;53.242;10.438;2023-06-26T10:44:21;28.30;99.90
18506;DHT22;9382;53.242;10.438;2023-06-26T10:46:50;27.70;99.90
18506;DHT22;9382;53.242;10.438;2023-06-26T10:49:19;27.10;99.90
18506;DHT22;9382;53.242;10.438;2023-06-26T10:51:47;26.60;99.90
18506;DHT22;9382;53.242;10.438;2023-06-26T10:54:15;26.00;99.90
18506;DHT22;9382;53.242;10.438;2023-06-26T10:56:43;25.30;99.90
18506;DHT22;9382;53.242;10.438;2023-06-26T10:59:15;24.70;99.90
18506;DHT22;9382;53.242;10.438;2023-06-26T11:01:43;23.80;99.90
18506;DHT22;9382;53.242;10.438;2023-06-26T11:04:10;22.80;99.90
18506;DHT22;9382;53.242;10.438;2023-06-26T11:06:39;21.90;99.90
18506;DHT22;9382;53.242;10.438;2023-06-26T11:09:10;21.30;99.90
18506;DHT22;9382;53.242;10.438;2023-06-26T11:11:59;20.80;99.90
18506;DHT22;9382;53.242;10.438;2023-06-26T11:14:30;20.50;99.90
18506;DHT22;9382;53.242;10.438;2023-06-26T11:16:57;20.40;99.90
18506;DHT22;9382;53.242;10.438;2023-06-26T11:19:26;20.20;99.90
18506;DHT22;9382;53.242;10.438;2023-06-26T11:22:01;20.10;99.90
18506;DHT22;9382;53.242;10.438;2023-06-26T11:24:29;20.00;99.90
18506;DHT22;9382;53.242;10.438;2023-06-26T11:27:00;20.00;99.90
18506;DHT22;9382;53.242;10.438;2023-06-26T11:29:26;20.00;99.90
18506;DHT22;9382;53.242;10.438;2023-06-26T11:31:59;20.00;99.90
18506;DHT22;9382;53.242;10.438;2023-06-26T11:34:29;20.00;99.90
18506;DHT22;9382;53.242;10.438;2023-06-26T11:36:57;20.20;99.90
18506;DHT22;9382;53.242;10.438;2023-06-26T11:39:25;20.30;99.90
18506;DHT22;9382;53.242;10.438;2023-06-26T11:41:51;20.60;99.90
18506;DHT22;9382;53.242;10.438;2023-06-26T11:44:18;21.00;99.90
18506;DHT22;9382;53.242;10.438;2023-06-26T11:46:45;21.50;99.90
18506;DHT22;9382;53.242;10.438;2023-06-26T11:49:16;21.70;99.90
18506;DHT22;9382;53.242;10.438;2023-06-26T11:51:43;21.90;99.90
18506;DHT22;9382;53.242;10.438;2023-06-26T11:54:09;22.00;99.90
18506;DHT22;9382;53.242;10.438;2023-06-26T11:56:39;22.00;99.90
18506;DHT22;9382;53.242;10.438;2023-06-26T11:59:06;21.80;99.90
18506;DHT22;9382;53.242;10.438;2023-06-26T12:01:35;21.80;99.90
18506;DHT22;9382;53.242;10.438;2023-06-26T12:04:03;21.80;99.90
18506;DHT22;9382;53.242;10.438;2023-06-26T12:06:32;21.90;99.90
18506;DHT22;9382;53.242;10.438;2023-06-26T12:09:01;21.90;99.90
18506;DHT22;9382;53.242;10.438;2023-06-26T12:11:31;22.00;99.90
18506;DHT22;9382;53.242;10.438;2023-06-26T12:13:59;22.20;99.90
18506;DHT22;9382;53.242;10.438;2023-06-26T12:16:27;22.30;99.90
18506;DHT22;9382;53.242;10.438;2023-06-26T12:18:58;22.50;99.90
18506;DHT22;9382;53.242;10.438;2023-06-26T12:21:42;22.80;99.90
18506;DHT22;9382;53.242;10.438;2023-06-26T12:24:13;23.00;99.90
18506;DHT22;9382;53.242;10.438;2023-06-26T12:26:41;23.10;99.90
18506;DHT22;9382;53.242;10.438;2023-06-26T12:29:12;23.00;99.90
18506;DHT22;9382;53.242;10.438;2023-06-26T12:31:40;23.00;99.90
18506;DHT22;9382;53.242;10.438;2023-06-26T12:34:09;23.60;99.90
18506;DHT22;9382;53.242;10.438;2023-06-26T12:36:40;24.50;99.90
18506;DHT22;9382;53.242;10.438;2023-06-26T12:39:09;25.60;99.90
18506;DHT22;9382;53.242;10.438;2023-06-26T12:41:44;26.60;99.90
18506;DHT22;9382;53.242;10.438;2023-06-26T12:44:18;27.40;99.90
18506;DHT22;9382;53.242;10.438;2023-06-26T12:46:46;28.20;99.90
18506;DHT22;9382;53.242;10.438;2023-06-26T12:49:14;28.50;99.90
18506;DHT22;9382;53.242;10.438;2023-06-26T12:51:40;29.00;99.90
18506;DHT22;9382;53.242;10.438;2023-06-26T12:54:08;28.60;99.90
18506;DHT22;9382;53.242;10.438;2023-06-26T12:56:35;27.80;99.90
18506;DHT22;9382;53.242;10.438;2023-06-26T12:59:01;26.90;99.90
18506;DHT22;9382;53.242;10.438;2023-06-26T13:01:29;26.10;99.90
18506;DHT22;9382;53.242;10.438;2023-06-26T13:03:56;26.00;99.90
18506;DHT22;9382;53.242;10.438;2023-06-26T13:06:23;26.80;99.90
18506;DHT22;9382;53.242;10.438;2023-06-26T13:08:49;27.80;99.90
18506;DHT22;9382;53.242;10.438;2023-06-26T13:11:16;28.20;99.90
18506;DHT22;9382;53.242;10.438;2023-06-26T13:13:43;28.40;99.90
18506;DHT22;9382;53.242;10.438;2023-06-26T13:16:09;29.10;99.90
18506;DHT22;9382;53.242;10.438;2023-06-26T13:18:37;28.90;99.90
18506;DHT22;9382;53.242;10.438;2023-06-26T13:21:04;29.00;99.90
18506;DHT22;9382;53.242;10.438;2023-06-26T13:23:30;29.40;99.90
18506;DHT22;9382;53.242;10.438;2023-06-26T13:25:57;30.30;99.90
18506;DHT22;9382;53.242;10.438;2023-06-26T13:28:24;30.80;99.90
18506;DHT22;9382;53.242;10.438;2023-06-26T13:30:50;31.20;99.90
18506;DHT22;9382;53.242;10.438;2023-06-26T13:33:17;31.20;99.90
18506;DHT22;9382;53.242;10.438;2023-06-26T13:35:45;30.70;99.90
18506;DHT22;9382;53.242;10.438;2023-06-26T13:38:11;30.70;99.90
18506;DHT22;9382;53.242;10.438;2023-06-26T13:40:38;31.20;99.90
18506;DHT22;9382;53.242;10.438;2023-06-26T13:43:05;31.80;99.90
18506;DHT22;9382;53.242;10.438;2023-06-26T13:45:31;32.00;99.90
18506;DHT22;9382;53.242;10.438;2023-06-26T13:47:58;31.50;99.90
18506;DHT22;9382;53.242;10.438;2023-06-26T13:50:25;31.30;99.90
18506;DHT22;9382;53.242;10.438;2023-06-26T13:52:53;31.20;99.90
18506;DHT22;9382;53.242;10.438;2023-06-26T13:55:20;30.80;99.90
18506;DHT22;9382;53.242;10.438;2023-06-26T13:57:48;30.40;99.90
18506;DHT22;9382;53.242;10.438;2023-06-26T14:00:15;30.20;99.90
18506;DHT22;9382;53.242;10.438;2023-06-26T14:02:45;30.10;99.90
18506;DHT22;9382;53.242;10.438;2023-06-26T14:05:12;30.20;99.90
18506;DHT22;9382;53.242;10.438;2023-06-26T14:07:39;30.70;99.90
18506;DHT22;9382;53.242;10.438;2023-06-26T14:10:07;30.30;99.90
18506;DHT22;9382;53.242;10.438;2023-06-26T14:12:34;30.10;99.90
18506;DHT22;9382;53.242;10.438;2023-06-26T14:15:01;30.00;99.90
18506;DHT22;9382;53.242;10.438;2023-06-26T14:17:28;29.80;99.90
18506;DHT22;9382;53.242;10.438;2023-06-26T14:19:55;29.50;99.90
18506;DHT22;9382;53.242;10.438;2023-06-26T14:22:22;30.50;99.90
18506;DHT22;9382;53.242;10.438;2023-06-26T14:24:49;30.70;99.90
18506;DHT22;9382;53.242;10.438;2023-06-26T14:27:17;29.80;99.90
18506;DHT22;9382;53.242;10.438;2023-06-26T14:29:43;28.80;99.90
18506;DHT22;9382;53.242;10.438;2023-06-26T14:32:10;28.10;99.90
18506;DHT22;9382;53.242;10.438;2023-06-26T14:34:37;27.40;99.90
18506;DHT22;9382;53.242;10.438;2023-06-26T14:37:05;26.70;99.90
18506;DHT22;9382;53.242;10.438;2023-06-26T14:39:32;26.10;99.90
18506;DHT22;9382;53.242;10.438;2023-06-26T14:41:59;26.30;99.90
18506;DHT22;9382;53.242;10.438;2023-06-26T14:44:27;26.90;99.90
18506;DHT22;9382;53.242;10.438;2023-06-26T14:46:53;27.80;99.90
18506;DHT22;9382;53.242;10.438;2023-06-26T14:49:20;28.00;99.90
18506;DHT22;9382;53.242;10.438;2023-06-26T14:51:46;27.70;99.90
18506;DHT22;9382;53.242;10.438;2023-06-26T14:54:13;27.20;99.90
18506;DHT22;9382;53.242;10.438;2023-06-26T14:56:40;26.80;99.90
18506;DHT22;9382;53.242;10.438;2023-06-26T14:59:09;27.00;99.90
18506;DHT22;9382;53.242;10.438;2023-06-26T15:01:38;28.40;99.90
18506;DHT22;9382;53.242;10.438;2023-06-26T15:04:04;30.40;99.90
18506;DHT22;9382;53.242;10.438;2023-06-26T15:06:31;31.20;99.90
18506;DHT22;9382;53.242;10.438;2023-06-26T15:08:59;30.40;99.90
18506;DHT22;9382;53.242;10.438;2023-06-26T15:11:26;29.30;99.90
18506;DHT22;9382;53.242;10.438;2023-06-26T15:13:53;28.60;99.90
18506;DHT22;9382;53.242;10.438;2023-06-26T15:16:19;28.40;99.90
18506;DHT22;9382;53.242;10.438;2023-06-26T15:18:47;28.80;99.90
18506;DHT22;9382;53.242;10.438;2023-06-26T15:21:14;29.20;99.90
18506;DHT22;9382;53.242;10.438;2023-06-26T15:23:40;29.60;99.90
18506;DHT22;9382;53.242;10.438;2023-06-26T15:26:07;30.50;99.90
18506;DHT22;9382;53.242;10.438;2023-06-26T15:28:34;31.80;99.90
18506;DHT22;9382;53.242;10.438;2023-06-26T15:31:00;32.40;99.90
18506;DHT22;9382;53.242;10.438;2023-06-26T15:33:27;33.30;99.90